Impacts TAF Board INFO
FOR SITUATIONAL AWARENESS. NOT TO BE USED FOR FLIGHT PLANNING PURPOSES.
IDs:

KMCO - Orlando Intl, FL, US

Issued at 0318 UTC 18 Dec 2017
Updated at 0450 UTC 18 Dec 2017
Potential Impact None Slight Moderate High
Time0353Z 18/05Z 18/06Z 18/07Z 18/08Z 18/09Z 18/10Z 18/11Z 18/12Z 18/13Z 18/14Z 18/15Z 18/16Z 18/17Z>>
Type OBS PRVL PRVL PRVL PRVL PRVL
  [TEMP]  
PRVL
  [TEMP]  
PRVL
  [TEMP]  
PRVL
  [TEMP]  
PRVL PRVL PRVL PRVL PRVL
VIS 10 >6 >6 4 4 4
  [1]  
4
  [1]  
4
  [1]  
4
  [1]  
4 4 >6 >6 >6
CIG -- -- -- -- -- --
  [4]  
--
  [4]  
--
  [4]  
--
  [4]  
-- -- -- -- --
Cover FEW FEW FEW SCT SCT SCT
  [BKN]  
SCT
  [BKN]  
SCT
  [BKN]  
SCT
  [BKN]  
SCT SCT SCT SCT SCT
FltCat VFR VFR VFR MVFR MVFR MVFR
  [LIFR]  
MVFR
  [LIFR]  
MVFR
  [LIFR]  
MVFR
  [LIFR]  
MVFR MVFR VFR VFR VFR
WX -- -- -- BR BR BR
  [BR]  
BR
  [BR]  
BR
  [BR]  
BR
  [BR]  
BR BR -- -- --
WDir 160 160 160 VRB VRB VRB
[VRB]
VRB
[VRB]
VRB
[VRB]
VRB
[VRB]
VRB VRB 170 170 170
WSpd 5 3 3 2 2 2
  [2]  
2
  [2]  
2
  [2]  
2
  [2]  
2 2 5 5 5
WGst -- -- -- -- -- --
  [--]  
--
  [--]  
--
  [--]  
--
  [--]  
-- -- -- -- --

Raw TAF
KMCO 180318Z 1803/1906 16003KT P6SM FEW300
  FM180700 VRB02KT 4SM BR SCT004
  TEMPO 1809/1813 1SM BR BKN004
  FM181500 17005KT P6SM FEW009 SCT015 SCT250
  FM181800 18005KT P6SM SCT035 SCT050 SCT250
  FM190000 VRB04KT P6SM FEW045 SCT250


Raw METAR
KMCO 180353Z 16005KT 10SM FEW300 17/17 A3024 RMK AO2 SLP237 T01720167 $
KMCO 180253Z 15005KT 10SM FEW300 18/17 A3024 RMK AO2 SLP237 T01780172 50004 $
KMCO 180153Z 14004KT 10SM FEW300 18/17 A3024 RMK AO2 SLP237 T01780167 $

METAR Board
Radar Display
Forecast Discussion

FOR SITUATIONAL AWARENESS. NOT TO BE USED FOR FLIGHT PLANNING PURPOSES.